createdAt,value
2019-01-12T00:02:23.196Z,47.97
2019-01-12T00:04:57.213Z,42.27
2019-01-12T00:07:30.995Z,40.53
2019-01-12T00:10:05.018Z,37.58
2019-01-12T00:12:42.369Z,34.87
2019-01-12T00:15:16.116Z,38.50
2019-01-12T00:17:50.732Z,40.33
2019-01-12T00:20:24.844Z,36.67
2019-01-12T00:22:59.412Z,33.57
2019-01-12T00:25:33.436Z,39.07
2019-01-12T00:28:10.682Z,37.33
2019-01-12T00:30:44.549Z,41.03
2019-01-12T00:33:18.240Z,45.60
2019-01-12T00:35:53.432Z,43.20
2019-01-12T00:38:27.356Z,41.57
2019-01-12T00:41:01.785Z,40.23
2019-01-12T00:43:36.724Z,34.70
2019-01-12T00:46:10.983Z,32.17
2019-01-12T00:48:44.572Z,33.07
2019-01-12T00:51:19.952Z,30.63
2019-01-12T00:53:54.211Z,29.87
2019-01-12T00:56:28.694Z,28.10
2019-01-12T00:59:02.633Z,27.67
2019-01-12T01:01:38.285Z,28.93
2019-01-12T01:04:18.623Z,26.53
2019-01-12T01:06:52.897Z,32.47
2019-01-12T01:09:34.455Z,33.30
2019-01-12T01:12:08.312Z,33.80
2019-01-12T01:14:44.805Z,32.00
2019-01-12T01:17:18.550Z,34.20
2019-01-12T01:19:52.562Z,37.87
2019-01-12T01:22:26.080Z,38.13
2019-01-12T01:24:59.982Z,37.03
2019-01-12T01:27:33.751Z,34.87
2019-01-12T01:30:11.909Z,34.33
2019-01-12T01:32:45.349Z,35.47
2019-01-12T01:35:20.602Z,37.23
2019-01-12T01:37:54.690Z,36.73
2019-01-12T01:40:29.220Z,37.37
2019-01-12T01:43:03.263Z,40.10
2019-01-12T01:45:38.190Z,37.73
2019-01-12T01:48:11.969Z,37.90
2019-01-12T01:50:46.367Z,39.10
2019-01-12T01:53:20.029Z,39.70
2019-01-12T01:55:55.118Z,37.43
2019-01-12T01:58:29.383Z,38.60
2019-01-12T02:01:03.327Z,38.57
2019-01-12T02:03:39.374Z,40.77
2019-01-12T02:06:13.176Z,39.83
2019-01-12T02:08:47.421Z,39.50
2019-01-12T02:11:20.996Z,38.40
2019-01-12T02:13:55.551Z,40.03
2019-01-12T02:16:32.587Z,39.13
2019-01-12T02:19:06.644Z,38.83
2019-01-12T02:21:40.743Z,38.77
2019-01-12T02:24:13.829Z,38.60
2019-01-12T02:26:48.115Z,38.87
2019-01-12T02:29:21.591Z,38.03
2019-01-12T02:31:55.378Z,38.80
2019-01-12T02:34:28.869Z,39.10
2019-01-12T02:37:02.436Z,37.60
2019-01-12T02:39:38.105Z,36.23
2019-01-12T02:42:12.203Z,30.77
2019-01-12T02:44:46.000Z,37.23
2019-01-12T02:47:20.223Z,32.07
2019-01-12T02:49:53.631Z,28.77
2019-01-12T02:52:27.595Z,32.40
2019-01-12T02:55:08.182Z,30.80
2019-01-12T02:57:36.377Z,30.60
2019-01-12T03:00:13.001Z,30.70
2019-01-12T03:02:47.281Z,29.37
2019-01-12T03:05:20.682Z,29.17
2019-01-12T03:07:54.327Z,34.87
2019-01-12T03:10:27.789Z,32.70
2019-01-12T03:13:02.172Z,34.63
2019-01-12T03:15:35.645Z,32.60
2019-01-12T03:18:12.245Z,33.43
2019-01-12T03:20:45.672Z,33.27
2019-01-12T03:23:19.092Z,32.33
2019-01-12T03:25:52.819Z,31.23
2019-01-12T03:28:26.881Z,29.10
2019-01-12T03:31:00.509Z,30.60
2019-01-12T03:33:34.649Z,29.97
2019-01-12T03:36:08.304Z,29.33
2019-01-12T03:38:42.310Z,25.63
2019-01-12T03:41:15.947Z,28.13
2019-01-12T03:43:50.200Z,29.43
2019-01-12T03:46:23.691Z,29.30
2019-01-12T03:48:57.735Z,31.47
2019-01-12T03:51:31.441Z,30.23
2019-01-12T03:54:05.416Z,31.43
2019-01-12T03:56:39.066Z,34.07
2019-01-12T03:59:12.668Z,33.60
2019-01-12T04:01:46.138Z,34.93
2019-01-12T04:04:19.650Z,34.17
2019-01-12T04:06:52.992Z,33.13
2019-01-12T04:09:26.815Z,31.40
2019-01-12T04:12:00.342Z,32.87
2019-01-12T04:14:34.108Z,34.40
2019-01-12T04:17:07.511Z,35.00
2019-01-12T04:19:45.350Z,33.67
2019-01-12T04:22:18.926Z,32.77
2019-01-12T04:24:52.845Z,31.47
2019-01-12T04:27:26.972Z,31.77
2019-01-12T04:30:01.460Z,31.10
2019-01-12T04:32:34.771Z,30.97
2019-01-12T04:35:08.927Z,31.33
2019-01-12T04:37:42.465Z,31.80
2019-01-12T04:40:20.933Z,32.07
2019-01-12T04:42:54.226Z,33.87
2019-01-12T04:45:28.159Z,31.70
2019-01-12T04:48:01.758Z,30.40
2019-01-12T04:50:35.669Z,31.53
2019-01-12T04:53:09.216Z,32.07
2019-01-12T04:55:42.820Z,31.53
2019-01-12T04:58:16.375Z,33.10
2019-01-12T05:00:50.159Z,32.60
2019-01-12T05:03:23.756Z,31.47
2019-01-12T05:05:57.904Z,33.77
2019-01-12T05:08:31.472Z,35.43
2019-01-12T05:11:05.523Z,31.67
2019-01-12T05:13:38.970Z,31.63
2019-01-12T05:16:12.989Z,30.97
2019-01-12T05:18:46.623Z,31.57
2019-01-12T05:21:23.272Z,34.17
2019-01-12T05:23:56.975Z,31.53
2019-01-12T05:26:30.990Z,30.87
2019-01-12T05:29:06.331Z,29.83
2019-01-12T05:31:40.283Z,33.03
2019-01-12T05:34:14.732Z,35.27
2019-01-12T05:36:50.843Z,33.17
2019-01-12T05:39:25.499Z,33.40
2019-01-12T05:41:59.686Z,34.80
2019-01-12T05:44:35.244Z,30.23
2019-01-12T05:47:09.311Z,32.33
2019-01-12T05:49:42.903Z,30.70
2019-01-12T05:52:16.576Z,35.80
2019-01-12T05:54:50.081Z,39.70
2019-01-12T05:57:24.045Z,37.13
2019-01-12T06:00:01.653Z,36.03
2019-01-12T06:02:35.271Z,38.63
2019-01-12T06:05:09.132Z,33.20
2019-01-12T06:07:42.566Z,33.97
2019-01-12T06:10:17.784Z,35.67
2019-01-12T06:12:56.704Z,32.77
2019-01-12T06:15:30.161Z,27.43
2019-01-12T06:18:04.201Z,28.20
2019-01-12T06:20:37.737Z,24.63
2019-01-12T06:23:14.420Z,28.53
2019-01-12T06:25:47.902Z,27.50
2019-01-12T06:28:34.770Z,27.60
2019-01-12T06:31:10.220Z,23.93
2019-01-12T06:33:44.224Z,20.40
2019-01-12T06:36:18.112Z,26.07
2019-01-12T06:38:52.275Z,26.33
2019-01-12T06:41:25.950Z,29.60
2019-01-12T06:44:00.073Z,29.17
2019-01-12T06:46:34.305Z,28.87
2019-01-12T06:49:08.705Z,32.03
2019-01-12T06:51:43.446Z,28.57
2019-01-12T06:54:17.365Z,28.43
2019-01-12T06:56:51.003Z,26.67
2019-01-12T06:59:25.083Z,29.43
2019-01-12T07:01:57.250Z,35.80
2019-01-12T07:04:31.119Z,37.47
2019-01-12T07:07:04.589Z,38.00
2019-01-12T07:09:38.810Z,35.73
2019-01-12T07:12:12.689Z,30.03
2019-01-12T07:14:46.783Z,28.80
2019-01-12T07:17:20.631Z,26.83
2019-01-12T07:19:54.742Z,28.33
2019-01-12T07:22:28.475Z,27.47
2019-01-12T07:25:03.028Z,41.37
2019-01-12T07:27:39.939Z,32.77
2019-01-12T07:30:21.649Z,30.13
2019-01-12T07:33:08.870Z,32.07
2019-01-12T07:35:42.873Z,29.73
2019-01-12T07:38:16.707Z,31.27
2019-01-12T07:40:51.537Z,33.80
2019-01-12T07:43:27.263Z,30.43
2019-01-12T07:46:01.214Z,31.40
2019-01-12T07:48:35.437Z,30.63
2019-01-12T07:51:09.191Z,33.97
2019-01-12T07:53:43.385Z,34.77
2019-01-12T07:56:16.620Z,33.97
2019-01-12T07:58:50.791Z,35.57
2019-01-12T08:01:25.160Z,35.47
2019-01-12T08:03:58.985Z,35.73
2019-01-12T08:06:32.661Z,33.10
2019-01-12T08:09:09.514Z,35.07
2019-01-12T08:11:44.496Z,34.33
2019-01-12T08:14:18.323Z,34.67
2019-01-12T08:16:52.537Z,33.23
2019-01-12T08:19:26.057Z,32.40
2019-01-12T08:21:59.789Z,31.63
2019-01-12T08:24:33.532Z,29.80
2019-01-12T08:27:10.719Z,26.47
2019-01-12T08:29:44.669Z,26.33
2019-01-12T08:32:19.326Z,25.60
2019-01-12T08:34:53.187Z,25.90
2019-01-12T08:37:27.374Z,24.73
2019-01-12T08:40:01.033Z,27.10
2019-01-12T08:42:35.437Z,33.03
2019-01-12T08:45:09.920Z,37.93
2019-01-12T08:47:44.025Z,45.63
2019-01-12T08:50:19.978Z,48.63
2019-01-12T08:52:54.307Z,38.73
2019-01-12T08:55:28.073Z,59.30
2019-01-12T08:58:02.674Z,55.27
2019-01-12T09:00:36.293Z,50.83
2019-01-12T09:03:10.526Z,52.17
2019-01-12T09:05:45.219Z,53.80
2019-01-12T09:08:19.373Z,47.23
2019-01-12T09:10:53.275Z,48.70
2019-01-12T09:13:28.132Z,45.50
2019-01-12T09:16:01.919Z,42.83
2019-01-12T09:18:36.045Z,45.33
2019-01-12T09:21:09.305Z,41.80
2019-01-12T09:23:44.776Z,43.63
2019-01-12T09:26:18.966Z,46.50
2019-01-12T09:28:56.107Z,45.77
2019-01-12T09:31:29.798Z,39.73
2019-01-12T09:34:04.046Z,40.33
2019-01-12T09:36:38.132Z,42.83
2019-01-12T09:39:16.854Z,37.47
2019-01-12T09:42:10.963Z,35.47
2019-01-12T09:44:45.434Z,35.20
2019-01-12T09:47:19.889Z,35.43
2019-01-12T09:49:54.270Z,35.20
2019-01-12T09:52:29.309Z,36.63
2019-01-12T09:55:08.622Z,31.60
2019-01-12T09:57:42.529Z,31.23
2019-01-12T10:00:19.334Z,29.57
2019-01-12T10:02:53.308Z,28.03
2019-01-12T10:05:27.690Z,26.90
2019-01-12T10:08:01.512Z,27.37
2019-01-12T10:10:36.949Z,24.17
2019-01-12T10:13:10.439Z,23.60
2019-01-12T10:15:45.324Z,22.27
2019-01-12T10:18:21.338Z,20.50
2019-01-12T10:20:55.079Z,21.23
2019-01-12T10:23:29.348Z,17.03
2019-01-12T10:26:04.468Z,14.93
2019-01-12T10:28:39.278Z,17.13
2019-01-12T10:31:15.642Z,16.80
2019-01-12T10:33:49.393Z,15.37
2019-01-12T10:36:23.608Z,16.13
2019-01-12T10:38:57.478Z,16.93
2019-01-12T10:41:32.543Z,15.53
2019-01-12T10:44:07.077Z,15.47
2019-01-12T10:46:41.438Z,18.13
2019-01-12T10:49:18.097Z,16.43
2019-01-12T10:51:52.521Z,15.97
2019-01-12T10:54:25.985Z,19.60
2019-01-12T10:57:05.440Z,20.43
2019-01-12T10:59:35.116Z,17.93
2019-01-12T11:02:09.220Z,16.10
2019-01-12T11:04:43.105Z,16.20
2019-01-12T11:07:21.493Z,14.20
2019-01-12T11:09:55.498Z,17.43
2019-01-12T11:12:29.775Z,13.33
2019-01-12T11:15:04.330Z,12.40
2019-01-12T11:17:40.774Z,13.43
2019-01-12T11:20:14.633Z,14.37
2019-01-12T11:22:49.641Z,14.83
2019-01-12T11:25:25.697Z,14.47
2019-01-12T11:28:02.156Z,16.20
2019-01-12T11:30:37.112Z,16.27
2019-01-12T11:33:14.809Z,13.70
2019-01-12T11:35:49.308Z,14.33
2019-01-12T11:38:22.955Z,13.20
2019-01-12T11:40:56.735Z,14.57
2019-01-12T11:43:30.449Z,17.00
2019-01-12T11:46:04.178Z,15.87
2019-01-12T11:48:37.926Z,17.63
2019-01-12T11:51:20.385Z,14.00
2019-01-12T11:53:55.555Z,12.77
2019-01-12T11:56:29.609Z,12.40
2019-01-12T11:59:04.402Z,11.50
2019-01-12T12:01:44.451Z,14.77
2019-01-12T12:04:17.693Z,14.40
2019-01-12T12:06:53.770Z,13.30
2019-01-12T12:09:28.413Z,14.57
2019-01-12T12:12:05.783Z,15.17
2019-01-12T12:14:40.128Z,14.00
2019-01-12T12:17:13.973Z,15.57
2019-01-12T12:19:48.236Z,13.40
2019-01-12T12:22:21.826Z,13.70
2019-01-12T12:24:55.855Z,14.50
2019-01-12T12:27:29.154Z,15.63
2019-01-12T12:30:06.690Z,16.23
2019-01-12T12:32:41.115Z,12.87
2019-01-12T12:35:18.222Z,14.63
2019-01-12T12:37:52.809Z,17.50
2019-01-12T12:40:27.721Z,16.03
2019-01-12T12:43:01.311Z,15.37
2019-01-12T12:45:36.854Z,13.93
2019-01-12T12:48:12.567Z,15.27
2019-01-12T12:50:47.749Z,13.70
2019-01-12T12:53:22.451Z,14.23
2019-01-12T12:55:57.306Z,14.70
2019-01-12T12:58:31.263Z,14.23
2019-01-12T13:01:05.985Z,14.63
2019-01-12T13:03:40.384Z,15.43
2019-01-12T13:06:14.514Z,12.63
2019-01-12T13:08:48.540Z,14.97
2019-01-12T13:11:23.763Z,16.63
2019-01-12T13:13:58.414Z,14.87
2019-01-12T13:16:33.626Z,13.87
2019-01-12T13:19:08.262Z,16.63
2019-01-12T13:21:42.569Z,13.33
2019-01-12T13:24:16.814Z,14.73
2019-01-12T13:26:52.259Z,17.70
2019-01-12T13:29:27.129Z,13.67
2019-01-12T13:32:02.887Z,15.03
2019-01-12T13:34:36.365Z,10.97
2019-01-12T13:37:09.921Z,13.03
2019-01-12T13:39:46.363Z,13.60
2019-01-12T13:42:19.913Z,14.37
2019-01-12T13:44:55.901Z,10.83
2019-01-12T13:47:29.705Z,11.63
2019-01-12T13:50:03.549Z,10.23
2019-01-12T13:52:38.250Z,12.67
2019-01-12T13:55:14.273Z,11.80
2019-01-12T13:57:49.482Z,12.40
2019-01-12T14:00:28.007Z,14.03
2019-01-12T14:03:02.220Z,12.23
2019-01-12T14:05:37.580Z,11.43
2019-01-12T14:08:11.505Z,12.60
2019-01-12T14:10:45.059Z,11.03
2019-01-12T14:13:18.743Z,15.13
2019-01-12T14:15:55.525Z,16.80
2019-01-12T14:18:29.781Z,14.67
2019-01-12T14:21:03.984Z,13.97
2019-01-12T14:23:38.386Z,13.40
2019-01-12T14:26:14.716Z,14.87
2019-01-12T14:28:49.359Z,16.27
2019-01-12T14:31:25.241Z,16.10
2019-01-12T14:33:59.797Z,14.67
2019-01-12T14:36:33.631Z,14.30
2019-01-12T14:39:14.151Z,13.13
2019-01-12T14:41:47.219Z,13.83
2019-01-12T14:44:21.440Z,16.13
2019-01-12T14:46:55.055Z,19.57
2019-01-12T14:49:29.713Z,16.00
2019-01-12T14:52:03.418Z,16.97
2019-01-12T14:54:37.573Z,15.27
2019-01-12T14:57:11.108Z,17.23
2019-01-12T14:59:45.249Z,14.57
2019-01-12T15:02:18.974Z,17.87
2019-01-12T15:04:53.846Z,14.83
2019-01-12T15:07:27.659Z,14.37
2019-01-12T15:10:04.312Z,17.53
2019-01-12T15:12:37.979Z,17.63
2019-01-12T15:15:23.791Z,21.33
2019-01-12T15:17:57.642Z,19.33
2019-01-12T15:20:32.662Z,19.60
2019-01-12T15:23:06.905Z,21.13
2019-01-12T15:25:43.003Z,20.00
2019-01-12T15:28:21.787Z,18.83
2019-01-12T15:30:55.216Z,17.83
2019-01-12T15:33:29.850Z,21.37
2019-01-12T15:36:07.399Z,17.27
2019-01-12T15:38:41.132Z,18.27
2019-01-12T15:41:16.423Z,18.37
2019-01-12T15:43:52.296Z,20.40
2019-01-12T15:46:26.383Z,23.17
2019-01-12T15:49:00.327Z,24.60
2019-01-12T15:51:36.297Z,24.10
2019-01-12T15:54:11.722Z,21.33
2019-01-12T15:56:46.058Z,17.43
2019-01-12T15:59:20.547Z,18.63
2019-01-12T16:01:55.390Z,17.07
2019-01-12T16:04:29.239Z,17.03
2019-01-12T16:07:04.017Z,17.13
2019-01-12T16:09:37.443Z,17.70
2019-01-12T16:12:13.047Z,18.03
2019-01-12T16:14:49.804Z,18.07
2019-01-12T16:17:24.146Z,19.07
2019-01-12T16:19:57.773Z,19.70
2019-01-12T16:22:32.050Z,19.77
2019-01-12T16:25:06.747Z,22.23
2019-01-12T16:27:40.656Z,25.93
2019-01-12T16:30:17.484Z,24.63
2019-01-12T16:32:53.819Z,23.07
2019-01-12T16:35:27.888Z,21.87
2019-01-12T16:38:01.691Z,20.83
2019-01-12T16:40:36.044Z,21.43
2019-01-12T16:43:10.914Z,23.30
2019-01-12T16:45:45.861Z,23.33
2019-01-12T16:48:19.983Z,23.97
2019-01-12T16:50:53.622Z,30.30
2019-01-12T16:53:27.613Z,28.27
2019-01-12T16:56:04.118Z,29.80
2019-01-12T16:58:40.868Z,30.03
2019-01-12T17:01:15.925Z,31.93
2019-01-12T17:03:49.743Z,31.27
2019-01-12T17:06:26.525Z,33.40
2019-01-12T17:09:00.369Z,35.67
2019-01-12T17:11:38.444Z,37.40
2019-01-12T17:14:13.166Z,41.90
2019-01-12T17:16:49.477Z,45.57
2019-01-12T17:19:24.149Z,43.43
2019-01-12T17:21:58.701Z,44.33
2019-01-12T17:24:38.042Z,45.47
2019-01-12T17:27:13.133Z,44.97
2019-01-12T17:29:48.427Z,43.73
2019-01-12T17:32:21.900Z,45.33
2019-01-12T17:34:55.927Z,41.77
2019-01-12T17:37:29.809Z,42.30
2019-01-12T17:40:07.113Z,32.03
2019-01-12T17:42:40.824Z,32.50
2019-01-12T17:45:21.667Z,30.40
2019-01-12T17:47:58.117Z,30.17
2019-01-12T17:50:33.224Z,36.27
2019-01-12T17:53:08.206Z,32.23
2019-01-12T17:55:42.553Z,33.70
2019-01-12T17:58:18.627Z,32.67
2019-01-12T18:00:53.757Z,34.73
2019-01-12T18:03:27.597Z,35.90
2019-01-12T18:06:01.683Z,34.63
2019-01-12T18:08:35.881Z,36.03
2019-01-12T18:11:09.802Z,35.57
2019-01-12T18:13:43.402Z,39.77
2019-01-12T18:16:17.689Z,35.83
2019-01-12T18:18:51.679Z,38.03
2019-01-12T18:21:31.285Z,38.60
2019-01-12T18:24:04.959Z,44.17
2019-01-12T18:26:40.125Z,40.67
2019-01-12T18:29:13.923Z,41.67
2019-01-12T18:31:48.202Z,58.90
2019-01-12T18:34:24.905Z,59.57
2019-01-12T18:36:58.385Z,67.90
2019-01-12T18:39:36.442Z,65.10
2019-01-12T18:42:10.182Z,68.33
2019-01-12T18:44:43.927Z,58.87
2019-01-12T18:47:19.022Z,58.67
2019-01-12T18:49:52.602Z,58.00
2019-01-12T18:52:28.148Z,57.53
2019-01-12T18:55:01.860Z,57.50
2019-01-12T18:57:35.603Z,53.43
2019-01-12T19:00:18.381Z,57.00
2019-01-12T19:02:51.651Z,55.07
2019-01-12T19:05:25.732Z,51.10
2019-01-12T19:07:59.919Z,48.57
2019-01-12T19:10:33.981Z,51.00
2019-01-12T19:13:07.858Z,49.13
2019-01-12T19:15:41.799Z,54.90
2019-01-12T19:18:16.082Z,60.13
2019-01-12T19:20:50.075Z,51.97
2019-01-12T19:23:24.471Z,45.33
2019-01-12T19:25:58.589Z,46.30
2019-01-12T19:28:31.997Z,43.90
2019-01-12T19:31:08.696Z,40.80
2019-01-12T19:33:42.443Z,40.87
2019-01-12T19:36:16.407Z,43.43
2019-01-12T19:38:50.089Z,44.50
2019-01-12T19:41:24.235Z,49.73
2019-01-12T19:43:57.679Z,59.57
2019-01-12T19:46:31.252Z,54.07
2019-01-12T19:49:06.311Z,49.27
2019-01-12T19:51:39.847Z,48.17
2019-01-12T19:54:14.330Z,48.20
2019-01-12T19:56:47.603Z,42.83
2019-01-12T19:59:21.500Z,46.23
2019-01-12T20:01:57.512Z,52.80
2019-01-12T20:04:31.668Z,72.73
2019-01-12T20:07:04.946Z,71.97
2019-01-12T20:09:43.863Z,77.20
2019-01-12T20:12:17.539Z,76.97
2019-01-12T20:14:51.734Z,77.97
2019-01-12T20:17:25.606Z,78.50
2019-01-12T20:20:00.981Z,79.30
2019-01-12T20:22:34.977Z,76.63
2019-01-12T20:25:10.548Z,81.40
2019-01-12T20:27:44.700Z,82.20
2019-01-12T20:30:56.178Z,74.87
2019-01-12T20:33:51.481Z,75.67
2019-01-12T20:37:10.313Z,77.43
2019-01-12T20:40:16.703Z,78.50
2019-01-12T20:43:31.258Z,79.50
2019-01-12T20:46:46.353Z,78.13
2019-01-12T20:49:30.237Z,76.60
2019-01-12T20:52:37.605Z,81.47
2019-01-12T20:55:38.406Z,85.43
2019-01-12T20:58:33.971Z,91.10
2019-01-12T21:01:38.971Z,85.27
2019-01-12T21:04:58.250Z,89.40
2019-01-12T21:07:44.663Z,85.53
2019-01-12T21:10:56.044Z,90.87
2019-01-12T21:14:09.217Z,89.30
2019-01-12T21:16:50.220Z,91.20
2019-01-12T21:19:28.673Z,91.90
2019-01-12T21:22:02.351Z,90.97
2019-01-12T21:24:36.338Z,95.00
2019-01-12T21:27:10.275Z,92.07
2019-01-12T21:29:44.267Z,91.50
2019-01-12T21:32:18.099Z,88.50
2019-01-12T21:34:54.703Z,85.77
2019-01-12T21:37:28.746Z,87.57
2019-01-12T21:40:02.662Z,90.93
2019-01-12T21:42:36.697Z,84.00
2019-01-12T21:45:14.136Z,88.57
2019-01-12T21:47:47.605Z,90.07
2019-01-12T21:50:22.198Z,92.67
2019-01-12T21:52:57.701Z,93.87
2019-01-12T21:55:31.257Z,86.03
2019-01-12T21:58:05.791Z,72.67
2019-01-12T22:00:39.569Z,70.00
2019-01-12T22:03:13.067Z,80.30
2019-01-12T22:05:46.990Z,68.23
2019-01-12T22:08:21.100Z,67.20
2019-01-12T22:10:55.608Z,72.03
2019-01-12T22:13:30.040Z,74.00
2019-01-12T22:16:04.056Z,80.27
2019-01-12T22:18:38.098Z,79.37
2019-01-12T22:21:11.647Z,82.63
2019-01-12T22:23:45.694Z,85.37
2019-01-12T22:26:19.871Z,85.83
2019-01-12T22:28:53.819Z,88.57
2019-01-12T22:31:30.125Z,87.27
2019-01-12T22:34:04.010Z,86.50
2019-01-12T22:36:38.989Z,84.73
2019-01-12T22:39:13.647Z,79.53
2019-01-12T22:41:47.489Z,80.37
2019-01-12T22:44:21.609Z,80.20
2019-01-12T22:46:55.756Z,77.57
2019-01-12T22:49:29.387Z,76.50
2019-01-12T22:52:03.265Z,68.83
2019-01-12T22:54:38.374Z,62.53
2019-01-12T22:57:12.186Z,57.80
2019-01-12T22:59:46.280Z,57.67
2019-01-12T23:02:20.437Z,53.90
2019-01-12T23:05:00.338Z,49.53
2019-01-12T23:07:34.331Z,50.40
2019-01-12T23:10:09.344Z,49.67
2019-01-12T23:12:44.452Z,46.80
2019-01-12T23:15:18.574Z,43.83
2019-01-12T23:17:52.529Z,45.83
2019-01-12T23:20:26.508Z,49.40
2019-01-12T23:23:00.700Z,46.67
2019-01-12T23:25:34.676Z,45.80
2019-01-12T23:28:08.780Z,48.90
2019-01-12T23:30:42.848Z,46.67
2019-01-12T23:33:17.202Z,42.97
2019-01-12T23:35:51.213Z,49.00
2019-01-12T23:38:27.732Z,47.30
2019-01-12T23:41:01.607Z,43.67
2019-01-12T23:43:37.333Z,40.63
2019-01-12T23:46:11.345Z,44.57
2019-01-12T23:48:45.877Z,40.37
2019-01-12T23:51:19.511Z,38.20
2019-01-12T23:53:53.293Z,35.93
2019-01-12T23:56:28.573Z,38.60
2019-01-12T23:59:03.382Z,36.23
